sensor_id;sensor_type;location;lat;lon;timestamp;temperature;humidity
24382;DHT22;12502;50.678;7.172;2022-08-03T00:04:54;21.10;99.90
24382;DHT22;12502;50.678;7.172;2022-08-03T00:09:56;21.10;99.90
24382;DHT22;12502;50.678;7.172;2022-08-03T00:14:58;21.00;99.90
24382;DHT22;12502;50.678;7.172;2022-08-03T00:19:59;21.00;99.90
24382;DHT22;12502;50.678;7.172;2022-08-03T00:25:01;21.00;99.90
24382;DHT22;12502;50.678;7.172;2022-08-03T00:30:03;21.00;99.90
24382;DHT22;12502;50.678;7.172;2022-08-03T00:35:06;20.90;99.90
24382;DHT22;12502;50.678;7.172;2022-08-03T00:40:13;20.80;99.90
24382;DHT22;12502;50.678;7.172;2022-08-03T00:45:33;20.80;99.90
24382;DHT22;12502;50.678;7.172;2022-08-03T00:50:38;20.80;99.90
24382;DHT22;12502;50.678;7.172;2022-08-03T00:55:41;20.80;99.90
24382;DHT22;12502;50.678;7.172;2022-08-03T01:00:43;20.70;99.90
24382;DHT22;12502;50.678;7.172;2022-08-03T01:21:27;20.50;99.90
24382;DHT22;12502;50.678;7.172;2022-08-03T01:31:56;20.50;99.90
24382;DHT22;12502;50.678;7.172;2022-08-03T01:37:30;20.40;99.90
24382;DHT22;12502;50.678;7.172;2022-08-03T01:42:33;20.40;99.90
24382;DHT22;12502;50.678;7.172;2022-08-03T01:47:38;20.30;99.90
24382;DHT22;12502;50.678;7.172;2022-08-03T01:52:42;20.30;99.90
24382;DHT22;12502;50.678;7.172;2022-08-03T01:57:46;20.30;99.90
24382;DHT22;12502;50.678;7.172;2022-08-03T02:03:07;20.30;99.90
24382;DHT22;12502;50.678;7.172;2022-08-03T02:08:12;20.30;99.90
24382;DHT22;12502;50.678;7.172;2022-08-03T02:13:15;20.20;99.90
24382;DHT22;12502;50.678;7.172;2022-08-03T02:18:20;20.10;99.90
24382;DHT22;12502;50.678;7.172;2022-08-03T02:23:23;20.10;99.90
24382;DHT22;12502;50.678;7.172;2022-08-03T02:28:40;20.10;99.90
24382;DHT22;12502;50.678;7.172;2022-08-03T02:33:49;20.10;99.90
24382;DHT22;12502;50.678;7.172;2022-08-03T02:38:53;20.00;99.90
24382;DHT22;12502;50.678;7.172;2022-08-03T02:43:59;19.90;99.90
24382;DHT22;12502;50.678;7.172;2022-08-03T02:49:09;19.90;99.90
24382;DHT22;12502;50.678;7.172;2022-08-03T02:54:32;19.90;99.90
24382;DHT22;12502;50.678;7.172;2022-08-03T02:59:36;19.80;99.90
24382;DHT22;12502;50.678;7.172;2022-08-03T03:04:39;19.70;99.90
24382;DHT22;12502;50.678;7.172;2022-08-03T03:10:03;19.70;99.90
24382;DHT22;12502;50.678;7.172;2022-08-03T03:15:05;19.70;99.90
24382;DHT22;12502;50.678;7.172;2022-08-03T03:20:08;19.70;99.90
24382;DHT22;12502;50.678;7.172;2022-08-03T03:25:10;19.60;99.90
24382;DHT22;12502;50.678;7.172;2022-08-03T03:30:12;19.60;99.90
24382;DHT22;12502;50.678;7.172;2022-08-03T03:35:15;19.60;99.90
24382;DHT22;12502;50.678;7.172;2022-08-03T03:40:17;19.50;99.90
24382;DHT22;12502;50.678;7.172;2022-08-03T03:45:20;19.40;99.90
24382;DHT22;12502;50.678;7.172;2022-08-03T03:50:23;19.30;99.90
24382;DHT22;12502;50.678;7.172;2022-08-03T03:55:25;19.30;99.90
24382;DHT22;12502;50.678;7.172;2022-08-03T04:00:27;19.30;99.90
24382;DHT22;12502;50.678;7.172;2022-08-03T04:05:29;19.20;99.90
24382;DHT22;12502;50.678;7.172;2022-08-03T04:11:19;19.20;99.90
24382;DHT22;12502;50.678;7.172;2022-08-03T04:16:37;19.20;99.90
24382;DHT22;12502;50.678;7.172;2022-08-03T04:21:47;19.10;99.90
24382;DHT22;12502;50.678;7.172;2022-08-03T04:26:52;19.10;99.90
24382;DHT22;12502;50.678;7.172;2022-08-03T04:31:56;19.10;99.90
24382;DHT22;12502;50.678;7.172;2022-08-03T04:37:01;19.20;99.90
24382;DHT22;12502;50.678;7.172;2022-08-03T04:42:06;19.20;99.90
24382;DHT22;12502;50.678;7.172;2022-08-03T04:47:09;19.10;99.90
24382;DHT22;12502;50.678;7.172;2022-08-03T04:52:11;19.20;99.90
24382;DHT22;12502;50.678;7.172;2022-08-03T04:57:14;19.20;99.90
24382;DHT22;12502;50.678;7.172;2022-08-03T05:02:23;19.20;99.90
24382;DHT22;12502;50.678;7.172;2022-08-03T05:07:25;19.20;99.90
24382;DHT22;12502;50.678;7.172;2022-08-03T05:12:37;19.20;99.90
24382;DHT22;12502;50.678;7.172;2022-08-03T05:17:39;19.30;99.90
24382;DHT22;12502;50.678;7.172;2022-08-03T05:22:40;19.30;99.90
24382;DHT22;12502;50.678;7.172;2022-08-03T05:27:42;19.30;99.90
24382;DHT22;12502;50.678;7.172;2022-08-03T05:32:44;19.40;99.90
24382;DHT22;12502;50.678;7.172;2022-08-03T05:37:47;19.40;99.90
24382;DHT22;12502;50.678;7.172;2022-08-03T05:42:55;19.50;99.90
24382;DHT22;12502;50.678;7.172;2022-08-03T05:47:58;19.60;99.90
24382;DHT22;12502;50.678;7.172;2022-08-03T05:53:00;19.70;99.90
24382;DHT22;12502;50.678;7.172;2022-08-03T05:58:02;19.80;99.90
24382;DHT22;12502;50.678;7.172;2022-08-03T06:03:04;19.90;99.90
24382;DHT22;12502;50.678;7.172;2022-08-03T06:08:06;20.00;99.90
24382;DHT22;12502;50.678;7.172;2022-08-03T06:13:08;20.10;99.90
24382;DHT22;12502;50.678;7.172;2022-08-03T06:18:10;20.20;99.90
24382;DHT22;12502;50.678;7.172;2022-08-03T06:23:12;20.30;99.90
24382;DHT22;12502;50.678;7.172;2022-08-03T06:28:18;20.40;99.90
24382;DHT22;12502;50.678;7.172;2022-08-03T06:33:40;20.50;99.90
24382;DHT22;12502;50.678;7.172;2022-08-03T06:39:02;20.60;99.90
24382;DHT22;12502;50.678;7.172;2022-08-03T06:44:04;20.80;99.90
24382;DHT22;12502;50.678;7.172;2022-08-03T06:49:06;21.00;99.90
24382;DHT22;12502;50.678;7.172;2022-08-03T06:54:08;21.10;99.90
24382;DHT22;12502;50.678;7.172;2022-08-03T06:59:10;21.30;99.90
24382;DHT22;12502;50.678;7.172;2022-08-03T07:04:32;21.40;99.90
24382;DHT22;12502;50.678;7.172;2022-08-03T07:09:34;21.60;99.90
24382;DHT22;12502;50.678;7.172;2022-08-03T07:14:35;21.70;99.90
24382;DHT22;12502;50.678;7.172;2022-08-03T07:19:40;21.90;99.90
24382;DHT22;12502;50.678;7.172;2022-08-03T07:24:41;22.10;99.90
24382;DHT22;12502;50.678;7.172;2022-08-03T07:29:43;22.30;99.90
24382;DHT22;12502;50.678;7.172;2022-08-03T07:34:45;22.40;99.90
24382;DHT22;12502;50.678;7.172;2022-08-03T07:39:47;22.50;99.90
24382;DHT22;12502;50.678;7.172;2022-08-03T07:44:49;22.80;99.90
24382;DHT22;12502;50.678;7.172;2022-08-03T07:49:51;23.00;99.90
24382;DHT22;12502;50.678;7.172;2022-08-03T07:54:53;23.20;99.90
24382;DHT22;12502;50.678;7.172;2022-08-03T07:59:54;23.50;99.90
24382;DHT22;12502;50.678;7.172;2022-08-03T08:05:02;23.80;99.90
24382;DHT22;12502;50.678;7.172;2022-08-03T08:10:08;24.00;99.90
24382;DHT22;12502;50.678;7.172;2022-08-03T08:15:13;24.20;99.90
24382;DHT22;12502;50.678;7.172;2022-08-03T08:20:19;24.40;99.90
24382;DHT22;12502;50.678;7.172;2022-08-03T08:25:30;24.70;99.90
24382;DHT22;12502;50.678;7.172;2022-08-03T08:30:32;24.90;99.90
24382;DHT22;12502;50.678;7.172;2022-08-03T08:35:36;25.20;99.90
24382;DHT22;12502;50.678;7.172;2022-08-03T08:40:37;25.50;99.90
24382;DHT22;12502;50.678;7.172;2022-08-03T08:45:40;25.80;99.90
24382;DHT22;12502;50.678;7.172;2022-08-03T08:50:42;26.20;99.90
24382;DHT22;12502;50.678;7.172;2022-08-03T08:55:45;26.40;99.90
24382;DHT22;12502;50.678;7.172;2022-08-03T09:01:01;26.70;99.90
24382;DHT22;12502;50.678;7.172;2022-08-03T09:06:03;27.00;99.90
24382;DHT22;12502;50.678;7.172;2022-08-03T09:11:05;27.20;99.90
24382;DHT22;12502;50.678;7.172;2022-08-03T09:16:10;27.30;99.90
24382;DHT22;12502;50.678;7.172;2022-08-03T09:21:21;27.50;99.90
24382;DHT22;12502;50.678;7.172;2022-08-03T09:26:34;27.80;99.90
24382;DHT22;12502;50.678;7.172;2022-08-03T09:31:37;28.00;99.90
24382;DHT22;12502;50.678;7.172;2022-08-03T09:36:48;28.20;99.90
24382;DHT22;12502;50.678;7.172;2022-08-03T09:47:06;28.40;99.90
24382;DHT22;12502;50.678;7.172;2022-08-03T09:52:16;28.50;99.90
24382;DHT22;12502;50.678;7.172;2022-08-03T09:57:34;28.60;99.90
24382;DHT22;12502;50.678;7.172;2022-08-03T10:02:36;28.70;99.90
24382;DHT22;12502;50.678;7.172;2022-08-03T10:07:43;28.70;99.90
24382;DHT22;12502;50.678;7.172;2022-08-03T10:12:46;28.90;99.90
24382;DHT22;12502;50.678;7.172;2022-08-03T10:17:49;29.00;99.90
24382;DHT22;12502;50.678;7.172;2022-08-03T10:22:51;29.10;99.90
24382;DHT22;12502;50.678;7.172;2022-08-03T10:27:55;29.20;99.90
24382;DHT22;12502;50.678;7.172;2022-08-03T10:33:10;29.30;99.90
24382;DHT22;12502;50.678;7.172;2022-08-03T10:38:43;29.40;99.90
24382;DHT22;12502;50.678;7.172;2022-08-03T10:44:08;29.50;99.90
24382;DHT22;12502;50.678;7.172;2022-08-03T10:49:14;29.60;99.90
24382;DHT22;12502;50.678;7.172;2022-08-03T10:54:44;29.70;99.90
24382;DHT22;12502;50.678;7.172;2022-08-03T11:00:12;29.80;99.90
24382;DHT22;12502;50.678;7.172;2022-08-03T11:05:24;29.80;99.90
24382;DHT22;12502;50.678;7.172;2022-08-03T11:10:30;29.80;99.10
24382;DHT22;12502;50.678;7.172;2022-08-03T11:15:33;29.90;99.10
24382;DHT22;12502;50.678;7.172;2022-08-03T11:26:11;30.10;97.90
24382;DHT22;12502;50.678;7.172;2022-08-03T11:37:20;30.40;97.00
24382;DHT22;12502;50.678;7.172;2022-08-03T11:47:28;30.70;95.10
24382;DHT22;12502;50.678;7.172;2022-08-03T11:52:35;30.70;94.90
24382;DHT22;12502;50.678;7.172;2022-08-03T11:57:37;30.80;94.70
24382;DHT22;12502;50.678;7.172;2022-08-03T12:08:04;31.00;93.90
24382;DHT22;12502;50.678;7.172;2022-08-03T12:13:07;31.00;94.00
24382;DHT22;12502;50.678;7.172;2022-08-03T12:18:29;31.20;94.20
24382;DHT22;12502;50.678;7.172;2022-08-03T12:23:31;31.30;92.20
24382;DHT22;12502;50.678;7.172;2022-08-03T12:28:46;31.50;92.10
24382;DHT22;12502;50.678;7.172;2022-08-03T12:33:58;31.40;91.40
24382;DHT22;12502;50.678;7.172;2022-08-03T12:39:04;31.60;91.80
24382;DHT22;12502;50.678;7.172;2022-08-03T12:44:08;31.70;91.10
24382;DHT22;12502;50.678;7.172;2022-08-03T12:49:11;31.50;90.70
24382;DHT22;12502;50.678;7.172;2022-08-03T12:54:22;31.50;90.40
24382;DHT22;12502;50.678;7.172;2022-08-03T12:59:31;31.50;91.10
24382;DHT22;12502;50.678;7.172;2022-08-03T13:04:36;31.70;90.70
24382;DHT22;12502;50.678;7.172;2022-08-03T13:09:54;31.60;88.30
24382;DHT22;12502;50.678;7.172;2022-08-03T13:14:58;31.60;90.20
24382;DHT22;12502;50.678;7.172;2022-08-03T13:20:00;31.60;90.00
24382;DHT22;12502;50.678;7.172;2022-08-03T13:25:03;31.70;88.40
24382;DHT22;12502;50.678;7.172;2022-08-03T13:30:07;31.80;88.50
24382;DHT22;12502;50.678;7.172;2022-08-03T13:35:10;32.10;88.10
24382;DHT22;12502;50.678;7.172;2022-08-03T13:40:17;32.30;86.70
24382;DHT22;12502;50.678;7.172;2022-08-03T13:45:20;32.50;87.80
24382;DHT22;12502;50.678;7.172;2022-08-03T13:50:22;32.60;86.10
24382;DHT22;12502;50.678;7.172;2022-08-03T13:55:24;32.60;84.30
24382;DHT22;12502;50.678;7.172;2022-08-03T14:00:26;32.50;84.70
24382;DHT22;12502;50.678;7.172;2022-08-03T14:05:30;32.40;84.20
24382;DHT22;12502;50.678;7.172;2022-08-03T14:10:34;32.20;85.40
24382;DHT22;12502;50.678;7.172;2022-08-03T14:15:37;32.30;85.70
24382;DHT22;12502;50.678;7.172;2022-08-03T14:20:39;32.40;84.90
24382;DHT22;12502;50.678;7.172;2022-08-03T14:25:51;32.40;83.10
24382;DHT22;12502;50.678;7.172;2022-08-03T14:30:54;32.50;82.00
24382;DHT22;12502;50.678;7.172;2022-08-03T14:35:57;32.50;82.20
24382;DHT22;12502;50.678;7.172;2022-08-03T14:40:59;32.50;81.60
24382;DHT22;12502;50.678;7.172;2022-08-03T14:46:00;32.70;82.30
24382;DHT22;12502;50.678;7.172;2022-08-03T14:51:03;32.70;81.50
24382;DHT22;12502;50.678;7.172;2022-08-03T14:56:05;32.70;80.20
24382;DHT22;12502;50.678;7.172;2022-08-03T15:01:11;32.80;80.20
24382;DHT22;12502;50.678;7.172;2022-08-03T15:06:33;32.90;80.10
24382;DHT22;12502;50.678;7.172;2022-08-03T15:11:34;33.10;81.00
24382;DHT22;12502;50.678;7.172;2022-08-03T15:16:37;33.10;79.40
24382;DHT22;12502;50.678;7.172;2022-08-03T15:21:39;33.10;78.50
24382;DHT22;12502;50.678;7.172;2022-08-03T15:26:48;33.10;79.30
24382;DHT22;12502;50.678;7.172;2022-08-03T15:31:49;33.00;77.90
24382;DHT22;12502;50.678;7.172;2022-08-03T15:36:51;32.90;77.10
24382;DHT22;12502;50.678;7.172;2022-08-03T15:41:53;32.90;78.30
24382;DHT22;12502;50.678;7.172;2022-08-03T15:46:57;33.00;79.00
24382;DHT22;12502;50.678;7.172;2022-08-03T15:51:59;33.10;77.90
24382;DHT22;12502;50.678;7.172;2022-08-03T15:57:01;33.10;77.70
24382;DHT22;12502;50.678;7.172;2022-08-03T16:02:03;33.10;77.80
24382;DHT22;12502;50.678;7.172;2022-08-03T16:07:05;33.10;77.00
24382;DHT22;12502;50.678;7.172;2022-08-03T16:12:07;33.10;78.40
24382;DHT22;12502;50.678;7.172;2022-08-03T16:17:17;33.10;78.30
24382;DHT22;12502;50.678;7.172;2022-08-03T16:22:19;33.10;77.70
24382;DHT22;12502;50.678;7.172;2022-08-03T16:27:24;32.90;78.10
24382;DHT22;12502;50.678;7.172;2022-08-03T16:32:46;32.80;76.80
24382;DHT22;12502;50.678;7.172;2022-08-03T16:37:48;32.80;77.40
24382;DHT22;12502;50.678;7.172;2022-08-03T16:42:57;32.80;77.50
24382;DHT22;12502;50.678;7.172;2022-08-03T16:47:59;32.80;78.60
24382;DHT22;12502;50.678;7.172;2022-08-03T16:53:07;32.80;77.10
24382;DHT22;12502;50.678;7.172;2022-08-03T16:58:10;32.70;77.70
24382;DHT22;12502;50.678;7.172;2022-08-03T17:03:15;32.60;78.50
24382;DHT22;12502;50.678;7.172;2022-08-03T17:08:25;32.50;78.80
24382;DHT22;12502;50.678;7.172;2022-08-03T17:13:28;32.30;79.10
24382;DHT22;12502;50.678;7.172;2022-08-03T17:18:51;32.10;80.50
24382;DHT22;12502;50.678;7.172;2022-08-03T17:24:13;32.00;80.30
24382;DHT22;12502;50.678;7.172;2022-08-03T17:29:22;31.80;80.20
24382;DHT22;12502;50.678;7.172;2022-08-03T17:34:25;31.70;80.30
24382;DHT22;12502;50.678;7.172;2022-08-03T17:39:27;31.80;81.10
24382;DHT22;12502;50.678;7.172;2022-08-03T17:44:51;31.70;83.30
24382;DHT22;12502;50.678;7.172;2022-08-03T17:49:53;31.70;84.90
24382;DHT22;12502;50.678;7.172;2022-08-03T17:55:17;31.60;85.70
24382;DHT22;12502;50.678;7.172;2022-08-03T18:00:38;31.50;85.20
24382;DHT22;12502;50.678;7.172;2022-08-03T18:06:04;31.50;85.60
24382;DHT22;12502;50.678;7.172;2022-08-03T18:11:16;31.30;83.80
24382;DHT22;12502;50.678;7.172;2022-08-03T18:16:44;31.30;84.30
24382;DHT22;12502;50.678;7.172;2022-08-03T18:21:49;31.20;83.70
24382;DHT22;12502;50.678;7.172;2022-08-03T18:27:04;31.10;85.60
24382;DHT22;12502;50.678;7.172;2022-08-03T18:32:08;31.00;87.40
24382;DHT22;12502;50.678;7.172;2022-08-03T18:37:18;30.80;88.80
24382;DHT22;12502;50.678;7.172;2022-08-03T18:42:26;30.70;90.10
24382;DHT22;12502;50.678;7.172;2022-08-03T18:47:56;30.50;90.50
24382;DHT22;12502;50.678;7.172;2022-08-03T19:04:30;29.90;93.60
24382;DHT22;12502;50.678;7.172;2022-08-03T19:14:52;29.50;95.00
24382;DHT22;12502;50.678;7.172;2022-08-03T19:19:57;29.40;95.30
24382;DHT22;12502;50.678;7.172;2022-08-03T19:25:03;29.20;95.70
24382;DHT22;12502;50.678;7.172;2022-08-03T19:30:06;29.00;96.30
24382;DHT22;12502;50.678;7.172;2022-08-03T19:35:28;28.90;96.90
24382;DHT22;12502;50.678;7.172;2022-08-03T19:40:50;28.70;96.70
24382;DHT22;12502;50.678;7.172;2022-08-03T19:45:54;28.60;97.50
24382;DHT22;12502;50.678;7.172;2022-08-03T19:51:08;28.50;98.40
24382;DHT22;12502;50.678;7.172;2022-08-03T19:56:14;28.30;99.90
24382;DHT22;12502;50.678;7.172;2022-08-03T20:01:18;28.20;99.90
24382;DHT22;12502;50.678;7.172;2022-08-03T20:06:22;28.10;99.90
24382;DHT22;12502;50.678;7.172;2022-08-03T20:11:26;27.90;99.90
24382;DHT22;12502;50.678;7.172;2022-08-03T20:16:29;27.70;99.90
24382;DHT22;12502;50.678;7.172;2022-08-03T20:21:32;27.60;99.90
24382;DHT22;12502;50.678;7.172;2022-08-03T20:26:39;27.50;99.90
24382;DHT22;12502;50.678;7.172;2022-08-03T20:31:43;27.40;99.90
24382;DHT22;12502;50.678;7.172;2022-08-03T20:36:45;27.30;99.90
24382;DHT22;12502;50.678;7.172;2022-08-03T20:41:47;27.10;99.90
24382;DHT22;12502;50.678;7.172;2022-08-03T20:46:49;27.00;99.90
24382;DHT22;12502;50.678;7.172;2022-08-03T20:52:01;26.80;99.90
24382;DHT22;12502;50.678;7.172;2022-08-03T20:57:05;26.70;99.90
24382;DHT22;12502;50.678;7.172;2022-08-03T21:02:10;26.50;99.90
24382;DHT22;12502;50.678;7.172;2022-08-03T21:07:21;26.40;99.90
24382;DHT22;12502;50.678;7.172;2022-08-03T21:17:57;26.20;99.90
24382;DHT22;12502;50.678;7.172;2022-08-03T21:23:00;26.10;99.90
24382;DHT22;12502;50.678;7.172;2022-08-03T21:28:04;25.90;99.90
24382;DHT22;12502;50.678;7.172;2022-08-03T21:33:08;25.80;99.90
24382;DHT22;12502;50.678;7.172;2022-08-03T21:38:09;25.70;99.90
24382;DHT22;12502;50.678;7.172;2022-08-03T21:43:20;25.60;99.90
24382;DHT22;12502;50.678;7.172;2022-08-03T21:48:24;25.50;99.90
24382;DHT22;12502;50.678;7.172;2022-08-03T21:53:28;25.30;99.90
24382;DHT22;12502;50.678;7.172;2022-08-03T21:58:59;25.20;99.90
24382;DHT22;12502;50.678;7.172;2022-08-03T22:04:04;25.10;99.90
24382;DHT22;12502;50.678;7.172;2022-08-03T22:09:08;25.00;99.90
24382;DHT22;12502;50.678;7.172;2022-08-03T22:14:10;24.90;99.90
24382;DHT22;12502;50.678;7.172;2022-08-03T22:19:12;24.70;99.90
24382;DHT22;12502;50.678;7.172;2022-08-03T22:24:17;24.60;99.90
24382;DHT22;12502;50.678;7.172;2022-08-03T22:29:24;24.60;99.90
24382;DHT22;12502;50.678;7.172;2022-08-03T22:34:27;24.40;99.90
24382;DHT22;12502;50.678;7.172;2022-08-03T22:39:30;24.40;99.90
24382;DHT22;12502;50.678;7.172;2022-08-03T22:44:34;24.20;99.90
24382;DHT22;12502;50.678;7.172;2022-08-03T22:49:36;24.10;99.90
24382;DHT22;12502;50.678;7.172;2022-08-03T22:54:39;24.10;99.90
24382;DHT22;12502;50.678;7.172;2022-08-03T22:59:42;24.00;99.90
24382;DHT22;12502;50.678;7.172;2022-08-03T23:04:49;23.90;99.90
24382;DHT22;12502;50.678;7.172;2022-08-03T23:09:52;23.80;99.90
24382;DHT22;12502;50.678;7.172;2022-08-03T23:15:00;23.70;99.90
24382;DHT22;12502;50.678;7.172;2022-08-03T23:20:07;23.60;99.90
24382;DHT22;12502;50.678;7.172;2022-08-03T23:25:09;23.50;99.90
24382;DHT22;12502;50.678;7.172;2022-08-03T23:30:12;23.40;99.90
24382;DHT22;12502;50.678;7.172;2022-08-03T23:35:14;23.30;99.90
24382;DHT22;12502;50.678;7.172;2022-08-03T23:40:56;23.30;99.90
24382;DHT22;12502;50.678;7.172;2022-08-03T23:46:00;23.20;99.90
24382;DHT22;12502;50.678;7.172;2022-08-03T23:51:08;23.10;99.90
24382;DHT22;12502;50.678;7.172;2022-08-03T23:56:28;23.10;99.90
